sensor_id;sensor_type;location;lat;lon;timestamp;P1;durP1;ratioP1;P2;durP2;ratioP2
38182;SDS011;23991;52.430;10.586;2023-07-02T00:01:45;10.35;;;4.63;;
38182;SDS011;23991;52.430;10.586;2023-07-02T00:04:12;8.38;;;4.45;;
38182;SDS011;23991;52.430;10.586;2023-07-02T00:06:41;7.93;;;4.65;;
38182;SDS011;23991;52.430;10.586;2023-07-02T00:09:07;7.63;;;4.95;;
38182;SDS011;23991;52.430;10.586;2023-07-02T00:11:34;7.00;;;4.57;;
38182;SDS011;23991;52.430;10.586;2023-07-02T00:13:59;6.78;;;4.60;;
38182;SDS011;23991;52.430;10.586;2023-07-02T00:16:25;9.50;;;4.47;;
38182;SDS011;23991;52.430;10.586;2023-07-02T00:18:50;8.95;;;4.47;;
38182;SDS011;23991;52.430;10.586;2023-07-02T00:21:21;9.73;;;5.20;;
38182;SDS011;23991;52.430;10.586;2023-07-02T00:23:47;7.30;;;4.50;;
38182;SDS011;23991;52.430;10.586;2023-07-02T00:26:13;7.75;;;4.70;;
38182;SDS011;23991;52.430;10.586;2023-07-02T00:28:39;11.68;;;4.75;;
38182;SDS011;23991;52.430;10.586;2023-07-02T00:31:08;12.48;;;5.00;;
38182;SDS011;23991;52.430;10.586;2023-07-02T00:33:33;7.85;;;4.57;;
38182;SDS011;23991;52.430;10.586;2023-07-02T00:35:59;8.45;;;4.30;;
38182;SDS011;23991;52.430;10.586;2023-07-02T00:38:25;7.75;;;4.65;;
38182;SDS011;23991;52.430;10.586;2023-07-02T00:40:51;9.32;;;4.82;;
38182;SDS011;23991;52.430;10.586;2023-07-02T00:43:17;6.85;;;4.20;;
38182;SDS011;23991;52.430;10.586;2023-07-02T00:45:43;8.65;;;3.97;;
38182;SDS011;23991;52.430;10.586;2023-07-02T00:48:10;8.68;;;4.95;;
38182;SDS011;23991;52.430;10.586;2023-07-02T00:50:36;10.80;;;5.15;;
38182;SDS011;23991;52.430;10.586;2023-07-02T00:53:02;9.82;;;4.90;;
38182;SDS011;23991;52.430;10.586;2023-07-02T00:55:27;9.93;;;4.80;;
38182;SDS011;23991;52.430;10.586;2023-07-02T00:57:53;4.75;;;4.00;;
38182;SDS011;23991;52.430;10.586;2023-07-02T01:00:21;6.93;;;4.10;;
38182;SDS011;23991;52.430;10.586;2023-07-02T01:02:54;7.47;;;4.35;;
38182;SDS011;23991;52.430;10.586;2023-07-02T01:05:24;10.07;;;4.20;;
38182;SDS011;23991;52.430;10.586;2023-07-02T01:08:05;13.55;;;4.72;;
38182;SDS011;23991;52.430;10.586;2023-07-02T01:10:31;8.82;;;4.13;;
38182;SDS011;23991;52.430;10.586;2023-07-02T01:12:58;6.25;;;4.00;;
38182;SDS011;23991;52.430;10.586;2023-07-02T01:15:26;13.20;;;4.33;;
38182;SDS011;23991;52.430;10.586;2023-07-02T01:17:52;5.10;;;3.83;;
38182;SDS011;23991;52.430;10.586;2023-07-02T01:20:24;7.88;;;4.38;;
38182;SDS011;23991;52.430;10.586;2023-07-02T01:22:52;8.05;;;4.00;;
38182;SDS011;23991;52.430;10.586;2023-07-02T01:25:17;6.30;;;4.28;;
38182;SDS011;23991;52.430;10.586;2023-07-02T01:27:43;10.00;;;4.22;;
38182;SDS011;23991;52.430;10.586;2023-07-02T01:30:09;9.07;;;3.60;;
38182;SDS011;23991;52.430;10.586;2023-07-02T01:32:36;9.13;;;3.33;;
38182;SDS011;23991;52.430;10.586;2023-07-02T01:35:03;9.50;;;3.72;;
38182;SDS011;23991;52.430;10.586;2023-07-02T01:37:29;5.65;;;3.58;;
38182;SDS011;23991;52.430;10.586;2023-07-02T01:40:02;8.52;;;3.50;;
38182;SDS011;23991;52.430;10.586;2023-07-02T01:42:31;10.53;;;3.93;;
38182;SDS011;23991;52.430;10.586;2023-07-02T01:44:56;7.18;;;3.22;;
38182;SDS011;23991;52.430;10.586;2023-07-02T01:47:22;5.70;;;3.13;;
38182;SDS011;23991;52.430;10.586;2023-07-02T01:49:49;5.28;;;3.13;;
38182;SDS011;23991;52.430;10.586;2023-07-02T01:52:15;8.13;;;3.15;;
38182;SDS011;23991;52.430;10.586;2023-07-02T01:54:41;9.65;;;3.85;;
38182;SDS011;23991;52.430;10.586;2023-07-02T01:57:06;8.32;;;3.10;;
38182;SDS011;23991;52.430;10.586;2023-07-02T01:59:32;5.03;;;2.90;;
38182;SDS011;23991;52.430;10.586;2023-07-02T02:01:58;6.00;;;3.20;;
38182;SDS011;23991;52.430;10.586;2023-07-02T02:04:23;8.02;;;2.90;;
38182;SDS011;23991;52.430;10.586;2023-07-02T02:06:49;8.57;;;3.08;;
38182;SDS011;23991;52.430;10.586;2023-07-02T02:09:14;5.70;;;2.65;;
38182;SDS011;23991;52.430;10.586;2023-07-02T02:11:42;6.85;;;2.70;;
38182;SDS011;23991;52.430;10.586;2023-07-02T02:14:08;9.30;;;3.33;;
38182;SDS011;23991;52.430;10.586;2023-07-02T02:16:34;6.50;;;2.78;;
38182;SDS011;23991;52.430;10.586;2023-07-02T02:19:00;6.28;;;3.15;;
38182;SDS011;23991;52.430;10.586;2023-07-02T02:21:26;10.13;;;2.85;;
38182;SDS011;23991;52.430;10.586;2023-07-02T02:23:51;7.60;;;2.90;;
38182;SDS011;23991;52.430;10.586;2023-07-02T02:26:17;9.88;;;3.22;;
38182;SDS011;23991;52.430;10.586;2023-07-02T02:28:43;4.78;;;2.70;;
38182;SDS011;23991;52.430;10.586;2023-07-02T02:31:09;6.78;;;2.88;;
38182;SDS011;23991;52.430;10.586;2023-07-02T02:33:34;6.00;;;2.92;;
38182;SDS011;23991;52.430;10.586;2023-07-02T02:36:00;5.13;;;3.05;;
38182;SDS011;23991;52.430;10.586;2023-07-02T02:38:26;9.82;;;2.97;;
38182;SDS011;23991;52.430;10.586;2023-07-02T02:40:53;6.90;;;2.50;;
38182;SDS011;23991;52.430;10.586;2023-07-02T02:43:19;6.55;;;2.50;;
38182;SDS011;23991;52.430;10.586;2023-07-02T02:45:45;5.40;;;2.50;;
38182;SDS011;23991;52.430;10.586;2023-07-02T02:48:11;6.35;;;2.70;;
38182;SDS011;23991;52.430;10.586;2023-07-02T02:50:37;8.57;;;2.72;;
38182;SDS011;23991;52.430;10.586;2023-07-02T02:53:08;11.30;;;2.85;;
38182;SDS011;23991;52.430;10.586;2023-07-02T02:55:35;6.70;;;3.00;;
38182;SDS011;23991;52.430;10.586;2023-07-02T02:58:01;10.13;;;2.72;;
38182;SDS011;23991;52.430;10.586;2023-07-02T03:00:26;6.38;;;2.70;;
38182;SDS011;23991;52.430;10.586;2023-07-02T03:02:52;9.45;;;2.95;;
38182;SDS011;23991;52.430;10.586;2023-07-02T03:05:18;5.57;;;3.03;;
38182;SDS011;23991;52.430;10.586;2023-07-02T03:07:43;9.85;;;3.28;;
38182;SDS011;23991;52.430;10.586;2023-07-02T03:10:10;8.60;;;3.05;;
38182;SDS011;23991;52.430;10.586;2023-07-02T03:12:36;6.18;;;2.90;;
38182;SDS011;23991;52.430;10.586;2023-07-02T03:15:01;6.70;;;3.00;;
38182;SDS011;23991;52.430;10.586;2023-07-02T03:17:27;8.13;;;3.20;;
38182;SDS011;23991;52.430;10.586;2023-07-02T03:19:53;6.85;;;3.17;;
38182;SDS011;23991;52.430;10.586;2023-07-02T03:22:18;7.30;;;3.40;;
38182;SDS011;23991;52.430;10.586;2023-07-02T03:24:44;5.82;;;3.17;;
38182;SDS011;23991;52.430;10.586;2023-07-02T03:27:09;6.30;;;3.20;;
38182;SDS011;23991;52.430;10.586;2023-07-02T03:29:35;9.88;;;3.90;;
38182;SDS011;23991;52.430;10.586;2023-07-02T03:32:03;7.90;;;3.40;;
38182;SDS011;23991;52.430;10.586;2023-07-02T03:34:28;8.45;;;2.97;;
38182;SDS011;23991;52.430;10.586;2023-07-02T03:36:54;11.70;;;3.72;;
38182;SDS011;23991;52.430;10.586;2023-07-02T03:39:19;7.25;;;3.65;;
38182;SDS011;23991;52.430;10.586;2023-07-02T03:41:45;7.93;;;3.40;;
38182;SDS011;23991;52.430;10.586;2023-07-02T03:44:11;4.90;;;3.20;;
38182;SDS011;23991;52.430;10.586;2023-07-02T03:46:36;5.72;;;3.45;;
38182;SDS011;23991;52.430;10.586;2023-07-02T03:49:02;10.05;;;3.40;;
38182;SDS011;23991;52.430;10.586;2023-07-02T03:51:28;6.57;;;3.05;;
38182;SDS011;23991;52.430;10.586;2023-07-02T03:53:54;6.35;;;3.50;;
38182;SDS011;23991;52.430;10.586;2023-07-02T03:56:20;7.80;;;3.30;;
38182;SDS011;23991;52.430;10.586;2023-07-02T03:58:45;8.52;;;3.50;;
38182;SDS011;23991;52.430;10.586;2023-07-02T04:01:11;6.72;;;3.50;;
38182;SDS011;23991;52.430;10.586;2023-07-02T04:03:37;6.35;;;3.38;;
38182;SDS011;23991;52.430;10.586;2023-07-02T04:06:03;5.05;;;3.13;;
38182;SDS011;23991;52.430;10.586;2023-07-02T04:08:30;6.32;;;3.60;;
38182;SDS011;23991;52.430;10.586;2023-07-02T04:10:56;10.05;;;3.50;;
38182;SDS011;23991;52.430;10.586;2023-07-02T04:13:22;10.43;;;3.70;;
38182;SDS011;23991;52.430;10.586;2023-07-02T04:15:47;11.15;;;3.72;;
38182;SDS011;23991;52.430;10.586;2023-07-02T04:18:13;5.57;;;3.08;;
38182;SDS011;23991;52.430;10.586;2023-07-02T04:20:39;11.93;;;3.92;;
38182;SDS011;23991;52.430;10.586;2023-07-02T04:23:05;8.32;;;3.25;;
38182;SDS011;23991;52.430;10.586;2023-07-02T04:25:31;9.48;;;3.80;;
38182;SDS011;23991;52.430;10.586;2023-07-02T04:27:56;7.18;;;3.60;;
38182;SDS011;23991;52.430;10.586;2023-07-02T04:30:23;4.72;;;3.17;;
38182;SDS011;23991;52.430;10.586;2023-07-02T04:32:50;3.70;;;2.85;;
38182;SDS011;23991;52.430;10.586;2023-07-02T04:35:18;6.70;;;3.33;;
38182;SDS011;23991;52.430;10.586;2023-07-02T04:37:44;8.65;;;3.70;;
38182;SDS011;23991;52.430;10.586;2023-07-02T04:40:10;5.90;;;3.30;;
38182;SDS011;23991;52.430;10.586;2023-07-02T04:42:36;6.50;;;3.25;;
38182;SDS011;23991;52.430;10.586;2023-07-02T04:45:03;11.98;;;4.05;;
38182;SDS011;23991;52.430;10.586;2023-07-02T04:47:33;8.55;;;4.13;;
38182;SDS011;23991;52.430;10.586;2023-07-02T04:49:59;15.98;;;4.03;;
38182;SDS011;23991;52.430;10.586;2023-07-02T04:52:25;7.70;;;3.63;;
38182;SDS011;23991;52.430;10.586;2023-07-02T04:54:50;9.75;;;3.75;;
38182;SDS011;23991;52.430;10.586;2023-07-02T04:57:16;7.43;;;4.25;;
38182;SDS011;23991;52.430;10.586;2023-07-02T04:59:42;8.30;;;3.72;;
38182;SDS011;23991;52.430;10.586;2023-07-02T05:02:07;5.55;;;3.63;;
38182;SDS011;23991;52.430;10.586;2023-07-02T05:04:33;7.00;;;3.72;;
38182;SDS011;23991;52.430;10.586;2023-07-02T05:07:00;5.47;;;3.95;;
38182;SDS011;23991;52.430;10.586;2023-07-02T05:09:26;6.85;;;3.85;;
38182;SDS011;23991;52.430;10.586;2023-07-02T05:11:51;6.15;;;3.63;;
38182;SDS011;23991;52.430;10.586;2023-07-02T05:14:17;8.20;;;3.90;;
38182;SDS011;23991;52.430;10.586;2023-07-02T05:16:43;7.32;;;4.35;;
38182;SDS011;23991;52.430;10.586;2023-07-02T05:19:09;5.30;;;3.72;;
38182;SDS011;23991;52.430;10.586;2023-07-02T05:21:34;9.55;;;4.03;;
38182;SDS011;23991;52.430;10.586;2023-07-02T05:24:00;9.13;;;4.35;;
38182;SDS011;23991;52.430;10.586;2023-07-02T05:26:25;8.50;;;4.65;;
38182;SDS011;23991;52.430;10.586;2023-07-02T05:28:52;5.65;;;4.05;;
38182;SDS011;23991;52.430;10.586;2023-07-02T05:31:17;7.00;;;4.45;;
38182;SDS011;23991;52.430;10.586;2023-07-02T05:33:43;9.32;;;4.78;;
38182;SDS011;23991;52.430;10.586;2023-07-02T05:36:09;12.55;;;6.10;;
38182;SDS011;23991;52.430;10.586;2023-07-02T05:38:34;6.85;;;4.30;;
38182;SDS011;23991;52.430;10.586;2023-07-02T05:41:00;7.75;;;4.90;;
38182;SDS011;23991;52.430;10.586;2023-07-02T05:43:26;6.05;;;3.85;;
38182;SDS011;23991;52.430;10.586;2023-07-02T05:45:52;8.40;;;4.10;;
38182;SDS011;23991;52.430;10.586;2023-07-02T05:48:18;8.80;;;4.35;;
38182;SDS011;23991;52.430;10.586;2023-07-02T05:50:43;7.18;;;5.13;;
38182;SDS011;23991;52.430;10.586;2023-07-02T05:53:09;10.20;;;4.50;;
38182;SDS011;23991;52.430;10.586;2023-07-02T05:55:35;7.88;;;4.45;;
38182;SDS011;23991;52.430;10.586;2023-07-02T05:58:01;9.95;;;4.45;;
38182;SDS011;23991;52.430;10.586;2023-07-02T06:00:28;6.55;;;4.22;;
38182;SDS011;23991;52.430;10.586;2023-07-02T06:02:53;10.65;;;4.82;;
38182;SDS011;23991;52.430;10.586;2023-07-02T06:05:19;6.65;;;3.65;;
38182;SDS011;23991;52.430;10.586;2023-07-02T06:07:45;9.23;;;4.25;;
38182;SDS011;23991;52.430;10.586;2023-07-02T06:10:10;7.00;;;4.07;;
38182;SDS011;23991;52.430;10.586;2023-07-02T06:12:36;10.23;;;4.10;;
38182;SDS011;23991;52.430;10.586;2023-07-02T06:15:02;9.07;;;4.53;;
38182;SDS011;23991;52.430;10.586;2023-07-02T06:17:28;11.90;;;4.30;;
38182;SDS011;23991;52.430;10.586;2023-07-02T06:19:55;8.02;;;4.00;;
38182;SDS011;23991;52.430;10.586;2023-07-02T06:22:21;9.32;;;4.85;;
38182;SDS011;23991;52.430;10.586;2023-07-02T06:24:47;15.63;;;4.82;;
38182;SDS011;23991;52.430;10.586;2023-07-02T06:27:12;10.00;;;4.28;;
38182;SDS011;23991;52.430;10.586;2023-07-02T06:29:38;12.00;;;4.72;;
38182;SDS011;23991;52.430;10.586;2023-07-02T06:32:03;13.35;;;4.60;;
38182;SDS011;23991;52.430;10.586;2023-07-02T06:34:29;8.77;;;4.53;;
38182;SDS011;23991;52.430;10.586;2023-07-02T06:36:58;12.80;;;4.43;;
38182;SDS011;23991;52.430;10.586;2023-07-02T06:39:24;12.48;;;4.63;;
38182;SDS011;23991;52.430;10.586;2023-07-02T06:41:49;10.73;;;4.82;;
38182;SDS011;23991;52.430;10.586;2023-07-02T06:44:15;9.32;;;4.55;;
38182;SDS011;23991;52.430;10.586;2023-07-02T06:46:40;13.23;;;5.32;;
38182;SDS011;23991;52.430;10.586;2023-07-02T06:49:06;12.60;;;5.50;;
38182;SDS011;23991;52.430;10.586;2023-07-02T06:51:32;12.65;;;4.97;;
38182;SDS011;23991;52.430;10.586;2023-07-02T06:53:58;9.88;;;5.10;;
38182;SDS011;23991;52.430;10.586;2023-07-02T06:56:24;10.10;;;5.10;;
38182;SDS011;23991;52.430;10.586;2023-07-02T06:58:49;9.77;;;5.07;;
38182;SDS011;23991;52.430;10.586;2023-07-02T07:01:15;12.88;;;5.15;;
38182;SDS011;23991;52.430;10.586;2023-07-02T07:03:40;12.98;;;5.18;;
38182;SDS011;23991;52.430;10.586;2023-07-02T07:06:06;15.50;;;5.15;;
38182;SDS011;23991;52.430;10.586;2023-07-02T07:08:31;11.10;;;5.05;;
38182;SDS011;23991;52.430;10.586;2023-07-02T07:10:57;12.55;;;5.32;;
38182;SDS011;23991;52.430;10.586;2023-07-02T07:13:22;13.50;;;4.97;;
38182;SDS011;23991;52.430;10.586;2023-07-02T07:15:48;15.02;;;5.32;;
38182;SDS011;23991;52.430;10.586;2023-07-02T07:18:14;13.75;;;5.97;;
38182;SDS011;23991;52.430;10.586;2023-07-02T07:20:39;12.65;;;5.90;;
38182;SDS011;23991;52.430;10.586;2023-07-02T07:23:06;19.27;;;6.05;;
38182;SDS011;23991;52.430;10.586;2023-07-02T07:25:32;14.55;;;5.00;;
38182;SDS011;23991;52.430;10.586;2023-07-02T07:27:58;15.90;;;5.50;;
38182;SDS011;23991;52.430;10.586;2023-07-02T07:30:24;14.10;;;5.45;;
38182;SDS011;23991;52.430;10.586;2023-07-02T07:32:50;14.60;;;5.75;;
38182;SDS011;23991;52.430;10.586;2023-07-02T07:35:20;19.23;;;6.38;;
38182;SDS011;23991;52.430;10.586;2023-07-02T07:37:46;14.63;;;5.90;;
38182;SDS011;23991;52.430;10.586;2023-07-02T07:40:12;10.48;;;5.15;;
38182;SDS011;23991;52.430;10.586;2023-07-02T07:42:39;14.45;;;5.88;;
38182;SDS011;23991;52.430;10.586;2023-07-02T07:45:05;11.80;;;5.07;;
38182;SDS011;23991;52.430;10.586;2023-07-02T07:47:31;12.50;;;6.25;;
38182;SDS011;23991;52.430;10.586;2023-07-02T07:49:56;15.48;;;6.13;;
38182;SDS011;23991;52.430;10.586;2023-07-02T07:52:22;12.75;;;5.60;;
38182;SDS011;23991;52.430;10.586;2023-07-02T07:54:47;16.38;;;5.68;;
38182;SDS011;23991;52.430;10.586;2023-07-02T07:57:14;14.65;;;5.68;;
38182;SDS011;23991;52.430;10.586;2023-07-02T07:59:39;14.95;;;5.95;;
38182;SDS011;23991;52.430;10.586;2023-07-02T08:02:05;14.60;;;5.53;;
38182;SDS011;23991;52.430;10.586;2023-07-02T08:04:31;12.57;;;5.95;;
38182;SDS011;23991;52.430;10.586;2023-07-02T08:06:56;11.27;;;5.82;;
38182;SDS011;23991;52.430;10.586;2023-07-02T08:09:23;15.68;;;5.90;;
38182;SDS011;23991;52.430;10.586;2023-07-02T08:11:49;13.80;;;6.25;;
38182;SDS011;23991;52.430;10.586;2023-07-02T08:14:16;16.63;;;6.43;;
38182;SDS011;23991;52.430;10.586;2023-07-02T08:16:42;16.25;;;6.10;;
38182;SDS011;23991;52.430;10.586;2023-07-02T08:19:09;11.85;;;5.57;;
38182;SDS011;23991;52.430;10.586;2023-07-02T08:21:34;18.98;;;6.40;;
38182;SDS011;23991;52.430;10.586;2023-07-02T08:24:00;15.88;;;6.03;;
38182;SDS011;23991;52.430;10.586;2023-07-02T08:26:26;17.17;;;6.28;;
38182;SDS011;23991;52.430;10.586;2023-07-02T08:28:51;16.48;;;6.13;;
38182;SDS011;23991;52.430;10.586;2023-07-02T08:31:17;20.08;;;7.00;;
38182;SDS011;23991;52.430;10.586;2023-07-02T08:33:42;16.98;;;6.55;;
38182;SDS011;23991;52.430;10.586;2023-07-02T08:36:08;13.63;;;6.10;;
38182;SDS011;23991;52.430;10.586;2023-07-02T08:38:33;12.82;;;5.75;;
38182;SDS011;23991;52.430;10.586;2023-07-02T08:41:00;11.73;;;5.85;;
38182;SDS011;23991;52.430;10.586;2023-07-02T08:43:25;12.32;;;6.25;;
38182;SDS011;23991;52.430;10.586;2023-07-02T08:45:52;12.70;;;6.03;;
38182;SDS011;23991;52.430;10.586;2023-07-02T08:48:18;15.98;;;6.40;;
38182;SDS011;23991;52.430;10.586;2023-07-02T08:50:47;15.02;;;6.55;;
38182;SDS011;23991;52.430;10.586;2023-07-02T08:53:14;13.63;;;6.70;;
38182;SDS011;23991;52.430;10.586;2023-07-02T08:55:41;13.02;;;6.45;;
38182;SDS011;23991;52.430;10.586;2023-07-02T08:58:07;14.77;;;6.75;;
38182;SDS011;23991;52.430;10.586;2023-07-02T09:00:33;15.27;;;7.30;;
38182;SDS011;23991;52.430;10.586;2023-07-02T09:03:14;17.55;;;6.47;;
38182;SDS011;23991;52.430;10.586;2023-07-02T09:05:52;14.35;;;6.60;;
38182;SDS011;23991;52.430;10.586;2023-07-02T09:08:24;12.98;;;6.72;;
38182;SDS011;23991;52.430;10.586;2023-07-02T09:11:19;11.70;;;6.32;;
38182;SDS011;23991;52.430;10.586;2023-07-02T09:13:51;12.23;;;6.30;;
38182;SDS011;23991;52.430;10.586;2023-07-02T09:19:10;12.52;;;6.25;;
38182;SDS011;23991;52.430;10.586;2023-07-02T09:21:48;16.42;;;6.57;;
38182;SDS011;23991;52.430;10.586;2023-07-02T09:24:18;12.10;;;6.10;;
38182;SDS011;23991;52.430;10.586;2023-07-02T09:26:48;15.30;;;6.45;;
38182;SDS011;23991;52.430;10.586;2023-07-02T09:29:21;13.27;;;6.60;;
38182;SDS011;23991;52.430;10.586;2023-07-02T09:31:55;13.25;;;6.20;;
38182;SDS011;23991;52.430;10.586;2023-07-02T09:34:31;15.93;;;6.65;;
38182;SDS011;23991;52.430;10.586;2023-07-02T09:37:04;13.45;;;6.53;;
38182;SDS011;23991;52.430;10.586;2023-07-02T09:39:33;14.18;;;6.20;;
38182;SDS011;23991;52.430;10.586;2023-07-02T09:42:05;13.02;;;6.95;;
38182;SDS011;23991;52.430;10.586;2023-07-02T09:44:40;11.25;;;6.55;;
38182;SDS011;23991;52.430;10.586;2023-07-02T09:47:11;15.05;;;7.00;;
38182;SDS011;23991;52.430;10.586;2023-07-02T09:49:40;11.98;;;5.82;;
38182;SDS011;23991;52.430;10.586;2023-07-02T09:52:34;12.23;;;6.53;;
38182;SDS011;23991;52.430;10.586;2023-07-02T09:55:00;11.65;;;6.50;;
38182;SDS011;23991;52.430;10.586;2023-07-02T09:57:28;11.02;;;6.28;;
38182;SDS011;23991;52.430;10.586;2023-07-02T10:00:00;12.02;;;6.40;;
38182;SDS011;23991;52.430;10.586;2023-07-02T10:02:32;9.65;;;5.95;;
38182;SDS011;23991;52.430;10.586;2023-07-02T10:04:58;11.30;;;6.13;;
38182;SDS011;23991;52.430;10.586;2023-07-02T10:07:26;13.25;;;6.53;;
38182;SDS011;23991;52.430;10.586;2023-07-02T10:09:53;17.52;;;5.65;;
38182;SDS011;23991;52.430;10.586;2023-07-02T10:12:20;16.05;;;6.80;;
38182;SDS011;23991;52.430;10.586;2023-07-02T10:14:54;11.40;;;6.70;;
38182;SDS011;23991;52.430;10.586;2023-07-02T10:17:33;16.02;;;6.43;;
38182;SDS011;23991;52.430;10.586;2023-07-02T10:20:00;13.63;;;6.85;;
38182;SDS011;23991;52.430;10.586;2023-07-02T10:23:09;12.10;;;6.30;;
38182;SDS011;23991;52.430;10.586;2023-07-02T10:25:29;12.65;;;6.28;;
38182;SDS011;23991;52.430;10.586;2023-07-02T10:27:59;12.90;;;6.20;;
38182;SDS011;23991;52.430;10.586;2023-07-02T10:30:33;14.98;;;7.05;;
38182;SDS011;23991;52.430;10.586;2023-07-02T10:33:07;11.57;;;6.32;;
38182;SDS011;23991;52.430;10.586;2023-07-02T10:35:34;13.65;;;6.63;;
38182;SDS011;23991;52.430;10.586;2023-07-02T10:38:00;13.43;;;7.35;;
38182;SDS011;23991;52.430;10.586;2023-07-02T10:40:26;15.80;;;6.60;;
38182;SDS011;23991;52.430;10.586;2023-07-02T10:42:52;14.77;;;6.70;;
38182;SDS011;23991;52.430;10.586;2023-07-02T10:45:18;13.00;;;6.18;;
38182;SDS011;23991;52.430;10.586;2023-07-02T10:47:45;14.40;;;6.40;;
38182;SDS011;23991;52.430;10.586;2023-07-02T10:50:21;14.48;;;6.50;;
38182;SDS011;23991;52.430;10.586;2023-07-02T10:52:48;13.65;;;6.15;;
38182;SDS011;23991;52.430;10.586;2023-07-02T10:55:20;13.70;;;6.18;;
38182;SDS011;23991;52.430;10.586;2023-07-02T10:57:48;13.43;;;6.65;;
38182;SDS011;23991;52.430;10.586;2023-07-02T11:00:17;13.48;;;6.05;;
38182;SDS011;23991;52.430;10.586;2023-07-02T11:02:43;13.07;;;6.47;;
38182;SDS011;23991;52.430;10.586;2023-07-02T11:05:09;14.20;;;6.88;;
38182;SDS011;23991;52.430;10.586;2023-07-02T11:07:37;12.63;;;6.25;;
38182;SDS011;23991;52.430;10.586;2023-07-02T11:10:04;10.98;;;6.45;;
38182;SDS011;23991;52.430;10.586;2023-07-02T11:12:31;12.80;;;6.53;;
38182;SDS011;23991;52.430;10.586;2023-07-02T11:15:09;15.13;;;6.68;;
38182;SDS011;23991;52.430;10.586;2023-07-02T11:17:36;13.75;;;6.18;;
38182;SDS011;23991;52.430;10.586;2023-07-02T11:20:02;11.32;;;6.55;;
38182;SDS011;23991;52.430;10.586;2023-07-02T11:22:32;13.85;;;6.22;;
38182;SDS011;23991;52.430;10.586;2023-07-02T11:25:07;12.75;;;6.80;;
38182;SDS011;23991;52.430;10.586;2023-07-02T11:27:36;12.85;;;5.75;;
38182;SDS011;23991;52.430;10.586;2023-07-02T11:30:02;11.93;;;5.88;;
38182;SDS011;23991;52.430;10.586;2023-07-02T11:32:27;10.13;;;5.90;;
38182;SDS011;23991;52.430;10.586;2023-07-02T11:34:53;12.90;;;6.97;;
38182;SDS011;23991;52.430;10.586;2023-07-02T11:37:19;11.48;;;5.70;;
38182;SDS011;23991;52.430;10.586;2023-07-02T11:39:45;11.63;;;6.03;;
38182;SDS011;23991;52.430;10.586;2023-07-02T11:42:10;10.45;;;5.57;;
38182;SDS011;23991;52.430;10.586;2023-07-02T11:44:36;13.82;;;5.60;;
38182;SDS011;23991;52.430;10.586;2023-07-02T11:47:01;10.40;;;5.55;;
38182;SDS011;23991;52.430;10.586;2023-07-02T11:49:28;10.70;;;5.65;;
38182;SDS011;23991;52.430;10.586;2023-07-02T11:51:54;13.20;;;5.60;;
38182;SDS011;23991;52.430;10.586;2023-07-02T11:54:19;9.30;;;5.28;;
38182;SDS011;23991;52.430;10.586;2023-07-02T11:56:45;9.13;;;5.38;;
38182;SDS011;23991;52.430;10.586;2023-07-02T11:59:11;9.05;;;5.38;;
38182;SDS011;23991;52.430;10.586;2023-07-02T12:01:36;13.60;;;5.90;;
38182;SDS011;23991;52.430;10.586;2023-07-02T12:04:02;15.27;;;6.13;;
38182;SDS011;23991;52.430;10.586;2023-07-02T12:06:28;12.98;;;6.32;;
38182;SDS011;23991;52.430;10.586;2023-07-02T12:08:53;11.05;;;5.50;;
38182;SDS011;23991;52.430;10.586;2023-07-02T12:11:19;11.18;;;6.30;;
38182;SDS011;23991;52.430;10.586;2023-07-02T12:13:46;17.48;;;6.10;;
38182;SDS011;23991;52.430;10.586;2023-07-02T12:16:11;10.35;;;5.20;;
38182;SDS011;23991;52.430;10.586;2023-07-02T12:18:37;9.88;;;5.97;;
38182;SDS011;23991;52.430;10.586;2023-07-02T12:21:02;8.70;;;4.97;;
38182;SDS011;23991;52.430;10.586;2023-07-02T12:23:29;13.98;;;5.60;;
38182;SDS011;23991;52.430;10.586;2023-07-02T12:25:55;8.82;;;5.07;;
38182;SDS011;23991;52.430;10.586;2023-07-02T12:28:21;9.93;;;5.57;;
38182;SDS011;23991;52.430;10.586;2023-07-02T12:30:46;11.98;;;5.55;;
38182;SDS011;23991;52.430;10.586;2023-07-02T12:33:12;9.95;;;5.50;;
38182;SDS011;23991;52.430;10.586;2023-07-02T12:35:38;13.13;;;6.40;;
38182;SDS011;23991;52.430;10.586;2023-07-02T12:38:04;13.65;;;5.45;;
38182;SDS011;23991;52.430;10.586;2023-07-02T12:40:32;12.07;;;6.03;;
38182;SDS011;23991;52.430;10.586;2023-07-02T12:43:01;10.95;;;6.25;;
38182;SDS011;23991;52.430;10.586;2023-07-02T12:45:27;9.10;;;5.28;;
38182;SDS011;23991;52.430;10.586;2023-07-02T12:47:53;10.80;;;5.25;;
38182;SDS011;23991;52.430;10.586;2023-07-02T12:50:18;12.27;;;5.40;;
38182;SDS011;23991;52.430;10.586;2023-07-02T12:52:44;14.63;;;5.68;;
38182;SDS011;23991;52.430;10.586;2023-07-02T12:55:11;15.80;;;6.28;;
38182;SDS011;23991;52.430;10.586;2023-07-02T12:57:37;10.73;;;6.10;;
38182;SDS011;23991;52.430;10.586;2023-07-02T13:00:03;12.40;;;5.68;;
38182;SDS011;23991;52.430;10.586;2023-07-02T13:02:31;14.43;;;5.78;;
38182;SDS011;23991;52.430;10.586;2023-07-02T13:04:56;12.15;;;5.75;;
38182;SDS011;23991;52.430;10.586;2023-07-02T13:07:25;13.00;;;5.63;;
38182;SDS011;23991;52.430;10.586;2023-07-02T13:09:51;8.73;;;5.13;;
38182;SDS011;23991;52.430;10.586;2023-07-02T13:12:17;14.73;;;5.32;;
38182;SDS011;23991;52.430;10.586;2023-07-02T13:14:43;8.48;;;5.18;;
38182;SDS011;23991;52.430;10.586;2023-07-02T13:17:08;11.52;;;5.05;;
38182;SDS011;23991;52.430;10.586;2023-07-02T13:19:34;14.27;;;5.57;;
38182;SDS011;23991;52.430;10.586;2023-07-02T13:22:00;10.18;;;5.15;;
38182;SDS011;23991;52.430;10.586;2023-07-02T13:24:27;12.05;;;5.55;;
38182;SDS011;23991;52.430;10.586;2023-07-02T13:26:58;12.40;;;5.80;;
38182;SDS011;23991;52.430;10.586;2023-07-02T13:29:23;14.00;;;5.40;;
38182;SDS011;23991;52.430;10.586;2023-07-02T13:31:49;10.43;;;5.30;;
38182;SDS011;23991;52.430;10.586;2023-07-02T13:34:15;9.68;;;5.30;;
38182;SDS011;23991;52.430;10.586;2023-07-02T13:36:43;12.63;;;5.00;;
38182;SDS011;23991;52.430;10.586;2023-07-02T13:39:08;10.23;;;5.20;;
38182;SDS011;23991;52.430;10.586;2023-07-02T13:41:34;9.85;;;5.18;;
38182;SDS011;23991;52.430;10.586;2023-07-02T13:44:00;9.77;;;4.75;;
38182;SDS011;23991;52.430;10.586;2023-07-02T13:46:25;11.07;;;5.28;;
38182;SDS011;23991;52.430;10.586;2023-07-02T13:48:51;9.32;;;5.05;;
38182;SDS011;23991;52.430;10.586;2023-07-02T13:51:16;9.10;;;4.78;;
38182;SDS011;23991;52.430;10.586;2023-07-02T13:53:42;9.98;;;4.97;;
38182;SDS011;23991;52.430;10.586;2023-07-02T13:56:07;11.15;;;5.00;;
38182;SDS011;23991;52.430;10.586;2023-07-02T13:58:47;10.20;;;5.22;;
38182;SDS011;23991;52.430;10.586;2023-07-02T14:01:38;14.65;;;5.07;;
38182;SDS011;23991;52.430;10.586;2023-07-02T14:04:04;9.32;;;4.88;;
38182;SDS011;23991;52.430;10.586;2023-07-02T14:06:32;11.48;;;5.47;;
38182;SDS011;23991;52.430;10.586;2023-07-02T14:08:58;11.20;;;5.38;;
38182;SDS011;23991;52.430;10.586;2023-07-02T14:11:24;11.27;;;4.68;;
38182;SDS011;23991;52.430;10.586;2023-07-02T14:13:52;10.38;;;4.50;;
38182;SDS011;23991;52.430;10.586;2023-07-02T14:16:18;8.77;;;5.00;;
38182;SDS011;23991;52.430;10.586;2023-07-02T14:18:43;10.80;;;5.28;;
38182;SDS011;23991;52.430;10.586;2023-07-02T14:21:09;14.43;;;5.68;;
38182;SDS011;23991;52.430;10.586;2023-07-02T14:23:34;11.48;;;5.35;;
38182;SDS011;23991;52.430;10.586;2023-07-02T14:26:00;8.88;;;5.10;;
38182;SDS011;23991;52.430;10.586;2023-07-02T14:28:28;8.57;;;4.90;;
38182;SDS011;23991;52.430;10.586;2023-07-02T14:30:58;14.45;;;5.45;;